sensor_id;sensor_type;location;lat;lon;timestamp;temperature;humidity
10543;DHT22;5320;50.046;10.314;2022-11-15T00:00:19;8.60;99.90
10543;DHT22;5320;50.046;10.314;2022-11-15T00:02:44;8.60;99.90
10543;DHT22;5320;50.046;10.314;2022-11-15T00:05:10;8.70;99.90
10543;DHT22;5320;50.046;10.314;2022-11-15T00:07:35;8.70;99.90
10543;DHT22;5320;50.046;10.314;2022-11-15T00:10:01;8.80;99.90
10543;DHT22;5320;50.046;10.314;2022-11-15T00:12:28;8.80;99.90
10543;DHT22;5320;50.046;10.314;2022-11-15T00:14:54;8.80;99.90
10543;DHT22;5320;50.046;10.314;2022-11-15T00:17:19;8.70;99.90
10543;DHT22;5320;50.046;10.314;2022-11-15T00:19:45;8.80;99.90
10543;DHT22;5320;50.046;10.314;2022-11-15T00:22:10;8.90;99.90
10543;DHT22;5320;50.046;10.314;2022-11-15T00:24:36;9.00;99.90
10543;DHT22;5320;50.046;10.314;2022-11-15T00:27:02;8.90;99.90
10543;DHT22;5320;50.046;10.314;2022-11-15T00:29:27;8.90;99.90
10543;DHT22;5320;50.046;10.314;2022-11-15T00:31:53;8.80;99.90
10543;DHT22;5320;50.046;10.314;2022-11-15T00:34:18;8.80;99.90
10543;DHT22;5320;50.046;10.314;2022-11-15T00:36:44;8.80;99.90
10543;DHT22;5320;50.046;10.314;2022-11-15T00:39:10;8.80;99.90
10543;DHT22;5320;50.046;10.314;2022-11-15T00:41:35;8.80;99.90
10543;DHT22;5320;50.046;10.314;2022-11-15T00:44:01;8.80;99.90
10543;DHT22;5320;50.046;10.314;2022-11-15T00:46:26;8.80;99.90
10543;DHT22;5320;50.046;10.314;2022-11-15T00:48:52;8.90;99.90
10543;DHT22;5320;50.046;10.314;2022-11-15T00:51:17;8.90;99.90
10543;DHT22;5320;50.046;10.314;2022-11-15T00:53:43;8.80;99.90
10543;DHT22;5320;50.046;10.314;2022-11-15T00:56:08;8.80;99.90
10543;DHT22;5320;50.046;10.314;2022-11-15T00:58:34;8.80;99.90
10543;DHT22;5320;50.046;10.314;2022-11-15T01:01:11;8.90;99.90
10543;DHT22;5320;50.046;10.314;2022-11-15T01:03:38;9.00;99.90
10543;DHT22;5320;50.046;10.314;2022-11-15T01:06:05;9.00;99.90
10543;DHT22;5320;50.046;10.314;2022-11-15T01:08:31;9.00;99.90
10543;DHT22;5320;50.046;10.314;2022-11-15T01:11:23;9.00;99.90
10543;DHT22;5320;50.046;10.314;2022-11-15T01:13:48;8.90;99.90
10543;DHT22;5320;50.046;10.314;2022-11-15T01:16:16;8.90;99.90
10543;DHT22;5320;50.046;10.314;2022-11-15T01:18:44;9.00;99.90
10543;DHT22;5320;50.046;10.314;2022-11-15T01:21:12;9.00;99.90
10543;DHT22;5320;50.046;10.314;2022-11-15T01:23:38;9.10;99.90
10543;DHT22;5320;50.046;10.314;2022-11-15T01:26:06;9.10;99.90
10543;DHT22;5320;50.046;10.314;2022-11-15T01:28:33;9.10;99.90
10543;DHT22;5320;50.046;10.314;2022-11-15T01:31:00;9.10;99.90
10543;DHT22;5320;50.046;10.314;2022-11-15T01:33:27;9.10;99.90
10543;DHT22;5320;50.046;10.314;2022-11-15T01:35:53;9.10;99.90
10543;DHT22;5320;50.046;10.314;2022-11-15T01:38:18;9.10;99.90
10543;DHT22;5320;50.046;10.314;2022-11-15T01:40:44;9.10;99.90
10543;DHT22;5320;50.046;10.314;2022-11-15T01:43:24;9.10;99.90
10543;DHT22;5320;50.046;10.314;2022-11-15T01:45:54;9.20;99.90
10543;DHT22;5320;50.046;10.314;2022-11-15T01:48:22;9.20;99.90
10543;DHT22;5320;50.046;10.314;2022-11-15T01:50:50;9.20;99.90
10543;DHT22;5320;50.046;10.314;2022-11-15T01:53:17;9.20;99.90
10543;DHT22;5320;50.046;10.314;2022-11-15T01:55:43;9.20;99.90
10543;DHT22;5320;50.046;10.314;2022-11-15T01:58:08;9.20;99.90
10543;DHT22;5320;50.046;10.314;2022-11-15T02:00:34;9.10;99.90
10543;DHT22;5320;50.046;10.314;2022-11-15T02:03:01;9.10;99.90
10543;DHT22;5320;50.046;10.314;2022-11-15T02:05:27;9.00;99.90
10543;DHT22;5320;50.046;10.314;2022-11-15T02:07:53;9.00;99.90
10543;DHT22;5320;50.046;10.314;2022-11-15T02:10:21;9.10;99.90
10543;DHT22;5320;50.046;10.314;2022-11-15T02:12:47;9.10;99.90
10543;DHT22;5320;50.046;10.314;2022-11-15T02:15:14;9.10;99.90
10543;DHT22;5320;50.046;10.314;2022-11-15T02:29:25;9.00;99.90
10543;DHT22;5320;50.046;10.314;2022-11-15T02:32:14;9.10;99.90
10543;DHT22;5320;50.046;10.314;2022-11-15T02:37:44;9.10;99.90
10543;DHT22;5320;50.046;10.314;2022-11-15T02:40:52;9.00;99.90
10543;DHT22;5320;50.046;10.314;2022-11-15T02:43:26;9.10;99.90
10543;DHT22;5320;50.046;10.314;2022-11-15T02:46:21;9.20;99.90
10543;DHT22;5320;50.046;10.314;2022-11-15T02:48:48;9.10;99.90
10543;DHT22;5320;50.046;10.314;2022-11-15T02:51:14;9.10;99.90
10543;DHT22;5320;50.046;10.314;2022-11-15T02:53:41;8.90;99.90
10543;DHT22;5320;50.046;10.314;2022-11-15T02:56:09;8.90;99.90
10543;DHT22;5320;50.046;10.314;2022-11-15T03:07:16;9.00;99.90
10543;DHT22;5320;50.046;10.314;2022-11-15T03:12:49;8.60;99.90
10543;DHT22;5320;50.046;10.314;2022-11-15T03:15:44;8.50;99.90
10543;DHT22;5320;50.046;10.314;2022-11-15T03:18:24;8.50;99.90
10543;DHT22;5320;50.046;10.314;2022-11-15T03:20:54;8.50;99.90
10543;DHT22;5320;50.046;10.314;2022-11-15T03:23:20;8.50;99.90
10543;DHT22;5320;50.046;10.314;2022-11-15T03:25:48;8.50;99.90
10543;DHT22;5320;50.046;10.314;2022-11-15T03:28:23;8.50;99.90
10543;DHT22;5320;50.046;10.314;2022-11-15T03:30:52;8.50;99.90
10543;DHT22;5320;50.046;10.314;2022-11-15T03:33:19;8.50;99.90
10543;DHT22;5320;50.046;10.314;2022-11-15T03:35:47;8.50;99.90
10543;DHT22;5320;50.046;10.314;2022-11-15T03:38:21;8.50;99.90
10543;DHT22;5320;50.046;10.314;2022-11-15T03:41:10;8.50;99.90
10543;DHT22;5320;50.046;10.314;2022-11-15T03:44:09;8.40;99.90
10543;DHT22;5320;50.046;10.314;2022-11-15T03:46:40;8.50;99.90
10543;DHT22;5320;50.046;10.314;2022-11-15T03:49:16;8.40;99.90
10543;DHT22;5320;50.046;10.314;2022-11-15T03:51:43;8.50;99.90
10543;DHT22;5320;50.046;10.314;2022-11-15T03:54:11;8.40;99.90
10543;DHT22;5320;50.046;10.314;2022-11-15T03:56:37;8.30;99.90
10543;DHT22;5320;50.046;10.314;2022-11-15T03:59:02;8.30;99.90
10543;DHT22;5320;50.046;10.314;2022-11-15T04:01:28;8.40;99.90
10543;DHT22;5320;50.046;10.314;2022-11-15T04:03:53;8.50;99.90
10543;DHT22;5320;50.046;10.314;2022-11-15T04:06:19;8.40;99.90
10543;DHT22;5320;50.046;10.314;2022-11-15T04:08:44;8.40;99.90
10543;DHT22;5320;50.046;10.314;2022-11-15T04:11:11;8.30;99.90
10543;DHT22;5320;50.046;10.314;2022-11-15T04:13:36;8.20;99.90
10543;DHT22;5320;50.046;10.314;2022-11-15T04:16:02;8.20;99.90
10543;DHT22;5320;50.046;10.314;2022-11-15T04:18:28;8.10;99.90
10543;DHT22;5320;50.046;10.314;2022-11-15T04:20:53;8.00;99.90
10543;DHT22;5320;50.046;10.314;2022-11-15T04:23:38;8.00;99.90
10543;DHT22;5320;50.046;10.314;2022-11-15T04:26:16;8.00;99.90
10543;DHT22;5320;50.046;10.314;2022-11-15T04:28:42;8.00;99.90
10543;DHT22;5320;50.046;10.314;2022-11-15T04:31:27;8.00;99.90
10543;DHT22;5320;50.046;10.314;2022-11-15T04:33:53;7.90;99.90
10543;DHT22;5320;50.046;10.314;2022-11-15T04:36:20;7.90;99.90
10543;DHT22;5320;50.046;10.314;2022-11-15T04:39:03;7.90;99.90
10543;DHT22;5320;50.046;10.314;2022-11-15T04:41:29;7.80;99.90
10543;DHT22;5320;50.046;10.314;2022-11-15T04:43:55;7.80;99.90
10543;DHT22;5320;50.046;10.314;2022-11-15T04:46:21;7.80;99.90
10543;DHT22;5320;50.046;10.314;2022-11-15T04:48:47;7.80;99.90
10543;DHT22;5320;50.046;10.314;2022-11-15T04:51:13;7.80;99.90
10543;DHT22;5320;50.046;10.314;2022-11-15T04:53:38;7.70;99.90
10543;DHT22;5320;50.046;10.314;2022-11-15T04:56:04;7.70;99.90
10543;DHT22;5320;50.046;10.314;2022-11-15T04:58:29;7.70;99.90
10543;DHT22;5320;50.046;10.314;2022-11-15T05:00:55;7.70;99.90
10543;DHT22;5320;50.046;10.314;2022-11-15T05:03:21;7.70;99.90
10543;DHT22;5320;50.046;10.314;2022-11-15T05:06:05;7.70;99.90
10543;DHT22;5320;50.046;10.314;2022-11-15T05:08:32;7.80;99.90
10543;DHT22;5320;50.046;10.314;2022-11-15T05:10:57;7.70;99.90
10543;DHT22;5320;50.046;10.314;2022-11-15T05:13:23;7.70;99.90
10543;DHT22;5320;50.046;10.314;2022-11-15T05:15:49;7.70;99.90
10543;DHT22;5320;50.046;10.314;2022-11-15T05:18:14;7.70;99.90
10543;DHT22;5320;50.046;10.314;2022-11-15T05:20:40;7.80;99.90
10543;DHT22;5320;50.046;10.314;2022-11-15T05:23:05;7.80;99.90
10543;DHT22;5320;50.046;10.314;2022-11-15T05:25:31;7.90;99.90
10543;DHT22;5320;50.046;10.314;2022-11-15T05:27:57;7.80;99.90
10543;DHT22;5320;50.046;10.314;2022-11-15T05:30:22;7.70;99.90
10543;DHT22;5320;50.046;10.314;2022-11-15T05:32:48;7.70;99.90
10543;DHT22;5320;50.046;10.314;2022-11-15T05:35:34;7.70;99.90
10543;DHT22;5320;50.046;10.314;2022-11-15T05:38:02;7.70;99.90
10543;DHT22;5320;50.046;10.314;2022-11-15T05:40:29;7.70;99.90
10543;DHT22;5320;50.046;10.314;2022-11-15T05:42:55;7.70;99.90
10543;DHT22;5320;50.046;10.314;2022-11-15T05:45:21;7.70;99.90
10543;DHT22;5320;50.046;10.314;2022-11-15T05:47:48;7.70;99.90
10543;DHT22;5320;50.046;10.314;2022-11-15T05:50:16;7.60;99.90
10543;DHT22;5320;50.046;10.314;2022-11-15T05:52:44;7.60;99.90
10543;DHT22;5320;50.046;10.314;2022-11-15T05:55:10;7.60;99.90
10543;DHT22;5320;50.046;10.314;2022-11-15T05:57:36;7.60;99.90
10543;DHT22;5320;50.046;10.314;2022-11-15T06:00:04;7.50;99.90
10543;DHT22;5320;50.046;10.314;2022-11-15T06:02:29;7.50;99.90
10543;DHT22;5320;50.046;10.314;2022-11-15T06:04:55;7.40;99.90
10543;DHT22;5320;50.046;10.314;2022-11-15T06:07:21;7.40;99.90
10543;DHT22;5320;50.046;10.314;2022-11-15T06:09:46;7.40;99.90
10543;DHT22;5320;50.046;10.314;2022-11-15T06:12:12;7.40;99.90
10543;DHT22;5320;50.046;10.314;2022-11-15T06:14:37;7.40;99.90
10543;DHT22;5320;50.046;10.314;2022-11-15T06:17:03;7.40;99.90
10543;DHT22;5320;50.046;10.314;2022-11-15T06:19:28;7.30;99.90
10543;DHT22;5320;50.046;10.314;2022-11-15T06:21:59;7.30;99.90
10543;DHT22;5320;50.046;10.314;2022-11-15T06:24:25;7.40;99.90
10543;DHT22;5320;50.046;10.314;2022-11-15T06:26:50;7.30;99.90
10543;DHT22;5320;50.046;10.314;2022-11-15T06:29:16;7.40;99.90
10543;DHT22;5320;50.046;10.314;2022-11-15T06:31:41;7.40;99.90
10543;DHT22;5320;50.046;10.314;2022-11-15T06:34:07;7.40;99.90
10543;DHT22;5320;50.046;10.314;2022-11-15T06:36:34;7.30;99.90
10543;DHT22;5320;50.046;10.314;2022-11-15T06:39:00;7.30;99.90
10543;DHT22;5320;50.046;10.314;2022-11-15T06:41:25;7.20;99.90
10543;DHT22;5320;50.046;10.314;2022-11-15T06:43:51;7.10;99.90
10543;DHT22;5320;50.046;10.314;2022-11-15T06:46:17;6.90;99.90
10543;DHT22;5320;50.046;10.314;2022-11-15T06:48:42;6.80;99.90
10543;DHT22;5320;50.046;10.314;2022-11-15T06:51:08;6.80;99.90
10543;DHT22;5320;50.046;10.314;2022-11-15T06:53:33;6.80;99.90
10543;DHT22;5320;50.046;10.314;2022-11-15T06:56:05;6.90;99.90
10543;DHT22;5320;50.046;10.314;2022-11-15T06:58:31;6.90;99.90
10543;DHT22;5320;50.046;10.314;2022-11-15T07:01:08;6.90;99.90
10543;DHT22;5320;50.046;10.314;2022-11-15T07:03:41;7.00;99.90
10543;DHT22;5320;50.046;10.314;2022-11-15T07:06:08;7.10;99.90
10543;DHT22;5320;50.046;10.314;2022-11-15T07:08:34;7.10;99.90
10543;DHT22;5320;50.046;10.314;2022-11-15T07:11:03;7.10;99.90
10543;DHT22;5320;50.046;10.314;2022-11-15T07:13:30;7.20;99.90
10543;DHT22;5320;50.046;10.314;2022-11-15T07:16:01;7.20;99.90
10543;DHT22;5320;50.046;10.314;2022-11-15T07:18:27;7.20;99.90
10543;DHT22;5320;50.046;10.314;2022-11-15T07:20:53;7.20;99.90
10543;DHT22;5320;50.046;10.314;2022-11-15T07:23:18;7.30;99.90
10543;DHT22;5320;50.046;10.314;2022-11-15T07:25:44;7.40;99.90
10543;DHT22;5320;50.046;10.314;2022-11-15T07:28:09;7.40;99.90
10543;DHT22;5320;50.046;10.314;2022-11-15T07:30:35;7.40;99.90
10543;DHT22;5320;50.046;10.314;2022-11-15T07:33:01;7.40;99.90
10543;DHT22;5320;50.046;10.314;2022-11-15T07:35:28;7.50;99.90
10543;DHT22;5320;50.046;10.314;2022-11-15T07:37:58;7.30;99.90
10543;DHT22;5320;50.046;10.314;2022-11-15T07:40:26;7.30;99.90
10543;DHT22;5320;50.046;10.314;2022-11-15T07:42:51;7.40;99.90
10543;DHT22;5320;50.046;10.314;2022-11-15T07:45:23;7.50;99.90
10543;DHT22;5320;50.046;10.314;2022-11-15T07:47:51;7.50;99.90
10543;DHT22;5320;50.046;10.314;2022-11-15T07:50:17;7.60;99.90
10543;DHT22;5320;50.046;10.314;2022-11-15T07:52:43;7.80;99.90
10543;DHT22;5320;50.046;10.314;2022-11-15T07:55:09;7.90;99.90
10543;DHT22;5320;50.046;10.314;2022-11-15T07:57:35;8.20;99.90
10543;DHT22;5320;50.046;10.314;2022-11-15T08:00:01;8.40;99.90
10543;DHT22;5320;50.046;10.314;2022-11-15T08:02:27;8.70;99.90
10543;DHT22;5320;50.046;10.314;2022-11-15T08:04:52;8.90;99.90
10543;DHT22;5320;50.046;10.314;2022-11-15T08:07:18;9.10;99.90
10543;DHT22;5320;50.046;10.314;2022-11-15T08:09:43;9.20;99.90
10543;DHT22;5320;50.046;10.314;2022-11-15T08:12:09;9.20;99.90
10543;DHT22;5320;50.046;10.314;2022-11-15T08:14:35;9.30;99.90
10543;DHT22;5320;50.046;10.314;2022-11-15T08:17:00;9.30;99.90
10543;DHT22;5320;50.046;10.314;2022-11-15T08:19:26;9.40;99.90
10543;DHT22;5320;50.046;10.314;2022-11-15T08:21:52;9.30;99.90
10543;DHT22;5320;50.046;10.314;2022-11-15T08:24:17;9.10;99.90
10543;DHT22;5320;50.046;10.314;2022-11-15T08:26:43;9.10;99.90
10543;DHT22;5320;50.046;10.314;2022-11-15T08:29:09;9.10;99.90
10543;DHT22;5320;50.046;10.314;2022-11-15T08:31:35;9.20;99.90
10543;DHT22;5320;50.046;10.314;2022-11-15T08:34:06;9.40;99.90
10543;DHT22;5320;50.046;10.314;2022-11-15T08:36:32;9.60;99.90
10543;DHT22;5320;50.046;10.314;2022-11-15T08:38:58;9.80;99.90
10543;DHT22;5320;50.046;10.314;2022-11-15T08:41:27;10.10;99.90
10543;DHT22;5320;50.046;10.314;2022-11-15T08:43:53;10.40;99.90
10543;DHT22;5320;50.046;10.314;2022-11-15T08:46:19;10.60;99.90
10543;DHT22;5320;50.046;10.314;2022-11-15T08:48:45;10.80;99.90
10543;DHT22;5320;50.046;10.314;2022-11-15T08:51:10;10.80;99.90
10543;DHT22;5320;50.046;10.314;2022-11-15T08:53:36;10.80;99.90
10543;DHT22;5320;50.046;10.314;2022-11-15T08:56:02;10.70;99.90
10543;DHT22;5320;50.046;10.314;2022-11-15T08:58:28;10.80;99.90
10543;DHT22;5320;50.046;10.314;2022-11-15T09:00:54;10.90;99.90
10543;DHT22;5320;50.046;10.314;2022-11-15T09:03:19;11.00;99.90
10543;DHT22;5320;50.046;10.314;2022-11-15T09:05:45;11.10;99.90
10543;DHT22;5320;50.046;10.314;2022-11-15T09:08:10;11.20;99.90
10543;DHT22;5320;50.046;10.314;2022-11-15T09:10:38;11.30;99.90
10543;DHT22;5320;50.046;10.314;2022-11-15T09:13:03;11.60;99.90
10543;DHT22;5320;50.046;10.314;2022-11-15T09:15:29;11.90;99.90
10543;DHT22;5320;50.046;10.314;2022-11-15T09:17:58;12.00;99.90
10543;DHT22;5320;50.046;10.314;2022-11-15T09:20:24;12.00;99.90
10543;DHT22;5320;50.046;10.314;2022-11-15T09:22:50;11.90;99.90
10543;DHT22;5320;50.046;10.314;2022-11-15T09:25:16;12.00;99.90
10543;DHT22;5320;50.046;10.314;2022-11-15T09:27:42;12.10;99.90
10543;DHT22;5320;50.046;10.314;2022-11-15T09:30:08;12.30;99.90
10543;DHT22;5320;50.046;10.314;2022-11-15T09:32:33;12.50;99.90
10543;DHT22;5320;50.046;10.314;2022-11-15T09:34:59;12.60;99.90
10543;DHT22;5320;50.046;10.314;2022-11-15T09:37:24;12.80;99.90
10543;DHT22;5320;50.046;10.314;2022-11-15T09:39:50;12.80;99.90
10543;DHT22;5320;50.046;10.314;2022-11-15T09:42:35;13.00;99.90
10543;DHT22;5320;50.046;10.314;2022-11-15T09:45:26;13.30;99.90
10543;DHT22;5320;50.046;10.314;2022-11-15T09:50:54;13.50;99.90
10543;DHT22;5320;50.046;10.314;2022-11-15T09:53:29;13.50;99.90
10543;DHT22;5320;50.046;10.314;2022-11-15T09:55:59;13.40;99.90
10543;DHT22;5320;50.046;10.314;2022-11-15T09:58:51;13.40;99.90
10543;DHT22;5320;50.046;10.314;2022-11-15T10:01:44;13.50;99.90
10543;DHT22;5320;50.046;10.314;2022-11-15T10:04:14;13.60;99.90
10543;DHT22;5320;50.046;10.314;2022-11-15T10:06:46;13.70;99.90
10543;DHT22;5320;50.046;10.314;2022-11-15T10:12:03;13.70;99.90
10543;DHT22;5320;50.046;10.314;2022-11-15T10:14:30;13.90;99.20
10543;DHT22;5320;50.046;10.314;2022-11-15T10:22:29;14.40;65.20
10543;DHT22;5320;50.046;10.314;2022-11-15T10:27:52;14.70;39.70
10543;DHT22;5320;50.046;10.314;2022-11-15T10:30:23;14.80;45.10
10543;DHT22;5320;50.046;10.314;2022-11-15T10:32:49;14.90;44.00
10543;DHT22;5320;50.046;10.314;2022-11-15T10:35:29;15.00;43.60
10543;DHT22;5320;50.046;10.314;2022-11-15T10:38:07;15.10;24.00
10543;DHT22;5320;50.046;10.314;2022-11-15T10:40:33;15.00;17.10
10543;DHT22;5320;50.046;10.314;2022-11-15T10:43:16;14.90;21.30
10543;DHT22;5320;50.046;10.314;2022-11-15T10:45:43;14.90;33.60
10543;DHT22;5320;50.046;10.314;2022-11-15T10:50:41;15.20;26.40
10543;DHT22;5320;50.046;10.314;2022-11-15T10:55:50;15.40;17.50
10543;DHT22;5320;50.046;10.314;2022-11-15T10:58:52;15.60;22.20
10543;DHT22;5320;50.046;10.314;2022-11-15T11:01:22;15.90;20.60
10543;DHT22;5320;50.046;10.314;2022-11-15T11:04:05;16.40;17.40
10543;DHT22;5320;50.046;10.314;2022-11-15T11:09:33;16.60;1.00
10543;DHT22;5320;50.046;10.314;2022-11-15T11:12:00;16.20;1.00
10543;DHT22;5320;50.046;10.314;2022-11-15T11:14:29;16.00;1.00
10543;DHT22;5320;50.046;10.314;2022-11-15T11:23:01;15.00;18.10
10543;DHT22;5320;50.046;10.314;2022-11-15T11:26:11;14.90;28.60
10543;DHT22;5320;50.046;10.314;2022-11-15T11:29:00;15.00;21.80
10543;DHT22;5320;50.046;10.314;2022-11-15T11:31:40;15.00;21.90
10543;DHT22;5320;50.046;10.314;2022-11-15T11:47:27;14.70;34.70
10543;DHT22;5320;50.046;10.314;2022-11-15T11:50:12;14.60;39.40
10543;DHT22;5320;50.046;10.314;2022-11-15T11:55:19;14.50;45.80
10543;DHT22;5320;50.046;10.314;2022-11-15T11:57:53;14.40;47.80
10543;DHT22;5320;50.046;10.314;2022-11-15T12:00:26;14.50;56.40
10543;DHT22;5320;50.046;10.314;2022-11-15T12:06:21;14.50;49.80
10543;DHT22;5320;50.046;10.314;2022-11-15T12:08:53;14.40;51.20
10543;DHT22;5320;50.046;10.314;2022-11-15T12:15:02;14.40;52.90
10543;DHT22;5320;50.046;10.314;2022-11-15T12:17:32;14.40;56.40
10543;DHT22;5320;50.046;10.314;2022-11-15T12:20:03;14.50;53.60
10543;DHT22;5320;50.046;10.314;2022-11-15T12:25:41;14.60;63.70
10543;DHT22;5320;50.046;10.314;2022-11-15T12:28:13;14.50;61.70
10543;DHT22;5320;50.046;10.314;2022-11-15T12:31:02;14.60;50.20
10543;DHT22;5320;50.046;10.314;2022-11-15T12:36:00;14.60;51.20
10543;DHT22;5320;50.046;10.314;2022-11-15T12:38:57;14.60;58.20
10543;DHT22;5320;50.046;10.314;2022-11-15T12:41:26;14.70;63.30
10543;DHT22;5320;50.046;10.314;2022-11-15T12:43:52;14.70;58.90
10543;DHT22;5320;50.046;10.314;2022-11-15T12:49:00;14.70;51.90
10543;DHT22;5320;50.046;10.314;2022-11-15T12:59:56;14.70;63.10
10543;DHT22;5320;50.046;10.314;2022-11-15T13:02:41;14.70;55.30
10543;DHT22;5320;50.046;10.314;2022-11-15T13:17:48;14.70;67.80
10543;DHT22;5320;50.046;10.314;2022-11-15T13:25:23;14.80;60.80
10543;DHT22;5320;50.046;10.314;2022-11-15T13:27:52;14.80;66.20
10543;DHT22;5320;50.046;10.314;2022-11-15T13:30:22;14.80;61.30
10543;DHT22;5320;50.046;10.314;2022-11-15T13:32:48;14.70;66.20
10543;DHT22;5320;50.046;10.314;2022-11-15T13:35:26;14.70;69.10
10543;DHT22;5320;50.046;10.314;2022-11-15T13:37:53;14.70;71.30
10543;DHT22;5320;50.046;10.314;2022-11-15T13:40:26;14.70;67.10
10543;DHT22;5320;50.046;10.314;2022-11-15T13:42:59;14.70;75.00
10543;DHT22;5320;50.046;10.314;2022-11-15T13:45:25;14.70;75.90
10543;DHT22;5320;50.046;10.314;2022-11-15T13:47:57;14.70;78.80
10543;DHT22;5320;50.046;10.314;2022-11-15T13:50:28;14.60;77.70
10543;DHT22;5320;50.046;10.314;2022-11-15T13:52:58;14.60;82.60
10543;DHT22;5320;50.046;10.314;2022-11-15T13:55:25;14.50;95.70
10543;DHT22;5320;50.046;10.314;2022-11-15T13:57:53;14.50;99.90
10543;DHT22;5320;50.046;10.314;2022-11-15T14:00:35;14.40;99.90
10543;DHT22;5320;50.046;10.314;2022-11-15T14:06:31;14.40;99.90
10543;DHT22;5320;50.046;10.314;2022-11-15T14:08:32;14.40;99.90
10543;DHT22;5320;50.046;10.314;2022-11-15T14:11:20;14.30;99.90
10543;DHT22;5320;50.046;10.314;2022-11-15T14:16:37;14.30;99.90
10543;DHT22;5320;50.046;10.314;2022-11-15T14:19:06;14.30;99.90
10543;DHT22;5320;50.046;10.314;2022-11-15T14:21:32;14.30;99.90
10543;DHT22;5320;50.046;10.314;2022-11-15T14:24:18;14.30;99.90
10543;DHT22;5320;50.046;10.314;2022-11-15T14:26:44;14.30;99.90
10543;DHT22;5320;50.046;10.314;2022-11-15T14:31:53;14.30;99.90
10543;DHT22;5320;50.046;10.314;2022-11-15T14:34:18;14.20;99.90
10543;DHT22;5320;50.046;10.314;2022-11-15T14:36:47;14.10;99.90
10543;DHT22;5320;50.046;10.314;2022-11-15T14:39:14;14.10;99.90
10543;DHT22;5320;50.046;10.314;2022-11-15T14:41:39;14.10;99.90
10543;DHT22;5320;50.046;10.314;2022-11-15T14:44:06;14.10;99.90
10543;DHT22;5320;50.046;10.314;2022-11-15T14:46:32;14.10;99.90
10543;DHT22;5320;50.046;10.314;2022-11-15T14:48:57;14.00;99.90
10543;DHT22;5320;50.046;10.314;2022-11-15T14:51:23;14.00;99.90
10543;DHT22;5320;50.046;10.314;2022-11-15T14:53:49;13.90;99.90
10543;DHT22;5320;50.046;10.314;2022-11-15T14:56:15;13.80;99.90
10543;DHT22;5320;50.046;10.314;2022-11-15T14:58:42;13.70;99.90
10543;DHT22;5320;50.046;10.314;2022-11-15T15:01:16;13.70;99.90
10543;DHT22;5320;50.046;10.314;2022-11-15T15:03:43;13.60;99.90
10543;DHT22;5320;50.046;10.314;2022-11-15T15:06:09;13.50;99.90
10543;DHT22;5320;50.046;10.314;2022-11-15T15:08:35;13.50;99.90
10543;DHT22;5320;50.046;10.314;2022-11-15T15:11:00;13.40;99.90
10543;DHT22;5320;50.046;10.314;2022-11-15T15:13:26;13.40;99.90
10543;DHT22;5320;50.046;10.314;2022-11-15T15:15:53;13.40;99.90
10543;DHT22;5320;50.046;10.314;2022-11-15T15:18:19;13.30;99.90
10543;DHT22;5320;50.046;10.314;2022-11-15T15:20:51;13.30;99.90
10543;DHT22;5320;50.046;10.314;2022-11-15T15:23:19;13.30;99.90
10543;DHT22;5320;50.046;10.314;2022-11-15T15:25:47;13.20;99.90
10543;DHT22;5320;50.046;10.314;2022-11-15T15:28:14;13.20;99.90
10543;DHT22;5320;50.046;10.314;2022-11-15T15:30:40;13.10;99.90
10543;DHT22;5320;50.046;10.314;2022-11-15T15:33:06;13.10;99.90
10543;DHT22;5320;50.046;10.314;2022-11-15T15:35:33;13.10;99.90
10543;DHT22;5320;50.046;10.314;2022-11-15T15:38:00;13.00;99.20
10543;DHT22;5320;50.046;10.314;2022-11-15T15:40:28;13.00;99.90
10543;DHT22;5320;50.046;10.314;2022-11-15T15:42:54;13.00;99.90
10543;DHT22;5320;50.046;10.314;2022-11-15T15:45:19;12.90;99.90
10543;DHT22;5320;50.046;10.314;2022-11-15T15:47:45;12.90;99.90
10543;DHT22;5320;50.046;10.314;2022-11-15T15:52:52;12.90;99.90
10543;DHT22;5320;50.046;10.314;2022-11-15T15:55:18;12.80;99.90
10543;DHT22;5320;50.046;10.314;2022-11-15T15:57:43;12.80;99.90
10543;DHT22;5320;50.046;10.314;2022-11-15T16:00:09;12.70;99.90
10543;DHT22;5320;50.046;10.314;2022-11-15T16:02:35;12.70;99.90
10543;DHT22;5320;50.046;10.314;2022-11-15T16:05:01;12.70;99.90
10543;DHT22;5320;50.046;10.314;2022-11-15T16:07:26;12.70;99.90
10543;DHT22;5320;50.046;10.314;2022-11-15T16:09:54;12.70;99.90
10543;DHT22;5320;50.046;10.314;2022-11-15T16:12:31;12.80;99.90
10543;DHT22;5320;50.046;10.314;2022-11-15T16:14:57;12.80;99.90
10543;DHT22;5320;50.046;10.314;2022-11-15T16:17:26;12.80;99.90
10543;DHT22;5320;50.046;10.314;2022-11-15T16:19:53;12.80;99.90
10543;DHT22;5320;50.046;10.314;2022-11-15T16:22:19;12.80;96.20
10543;DHT22;5320;50.046;10.314;2022-11-15T16:24:45;12.80;99.70
10543;DHT22;5320;50.046;10.314;2022-11-15T16:27:18;12.90;97.00
10543;DHT22;5320;50.046;10.314;2022-11-15T16:29:45;12.90;92.00
10543;DHT22;5320;50.046;10.314;2022-11-15T16:32:11;12.90;90.70
10543;DHT22;5320;50.046;10.314;2022-11-15T16:34:37;12.90;88.50
10543;DHT22;5320;50.046;10.314;2022-11-15T16:37:03;12.90;88.20
10543;DHT22;5320;50.046;10.314;2022-11-15T16:39:29;12.90;84.70
10543;DHT22;5320;50.046;10.314;2022-11-15T16:41:58;12.90;83.70
10543;DHT22;5320;50.046;10.314;2022-11-15T16:44:25;13.00;78.30
10543;DHT22;5320;50.046;10.314;2022-11-15T16:46:51;13.00;77.10
10543;DHT22;5320;50.046;10.314;2022-11-15T16:49:18;12.90;84.40
10543;DHT22;5320;50.046;10.314;2022-11-15T16:51:48;12.90;86.00
10543;DHT22;5320;50.046;10.314;2022-11-15T16:54:14;12.90;79.40
10543;DHT22;5320;50.046;10.314;2022-11-15T16:56:40;12.90;77.20
10543;DHT22;5320;50.046;10.314;2022-11-15T16:59:08;12.90;82.00
10543;DHT22;5320;50.046;10.314;2022-11-15T17:01:36;12.90;81.00
10543;DHT22;5320;50.046;10.314;2022-11-15T17:04:03;12.80;86.10
10543;DHT22;5320;50.046;10.314;2022-11-15T17:06:38;12.80;83.40
10543;DHT22;5320;50.046;10.314;2022-11-15T17:09:05;12.80;81.30
10543;DHT22;5320;50.046;10.314;2022-11-15T17:11:31;12.90;75.60
10543;DHT22;5320;50.046;10.314;2022-11-15T17:13:57;12.80;78.00
10543;DHT22;5320;50.046;10.314;2022-11-15T17:16:24;12.80;82.90
10543;DHT22;5320;50.046;10.314;2022-11-15T17:18:50;12.90;75.00
10543;DHT22;5320;50.046;10.314;2022-11-15T17:21:18;12.80;77.20
10543;DHT22;5320;50.046;10.314;2022-11-15T17:23:44;12.80;82.50
10543;DHT22;5320;50.046;10.314;2022-11-15T17:26:11;12.70;86.90
10543;DHT22;5320;50.046;10.314;2022-11-15T17:28:38;12.70;88.60
10543;DHT22;5320;50.046;10.314;2022-11-15T17:31:08;12.70;85.20
10543;DHT22;5320;50.046;10.314;2022-11-15T17:33:34;12.70;85.50
10543;DHT22;5320;50.046;10.314;2022-11-15T17:36:03;12.60;90.50
10543;DHT22;5320;50.046;10.314;2022-11-15T17:38:30;12.60;94.20
10543;DHT22;5320;50.046;10.314;2022-11-15T17:41:15;12.50;95.90
10543;DHT22;5320;50.046;10.314;2022-11-15T17:43:41;12.50;98.50
10543;DHT22;5320;50.046;10.314;2022-11-15T17:46:12;12.50;97.90
10543;DHT22;5320;50.046;10.314;2022-11-15T17:48:38;12.40;98.80
10543;DHT22;5320;50.046;10.314;2022-11-15T17:51:06;12.40;99.50
10543;DHT22;5320;50.046;10.314;2022-11-15T17:53:36;12.40;99.90